sensor_id;sensor_type;location;lat;lon;timestamp;temperature;humidity
53962;DHT22;39868;53.398;6.564;2023-03-03T00:01:36;3.20;77.50
53962;DHT22;39868;53.398;6.564;2023-03-03T00:04:03;3.10;77.40
53962;DHT22;39868;53.398;6.564;2023-03-03T00:06:30;3.10;77.40
53962;DHT22;39868;53.398;6.564;2023-03-03T00:08:58;3.00;77.40
53962;DHT22;39868;53.398;6.564;2023-03-03T00:11:25;3.00;77.50
53962;DHT22;39868;53.398;6.564;2023-03-03T00:13:54;2.90;77.40
53962;DHT22;39868;53.398;6.564;2023-03-03T00:16:28;2.90;77.40
53962;DHT22;39868;53.398;6.564;2023-03-03T00:18:57;2.80;77.30
53962;DHT22;39868;53.398;6.564;2023-03-03T00:21:39;2.80;77.30
53962;DHT22;39868;53.398;6.564;2023-03-03T00:26:43;2.70;77.40
53962;DHT22;39868;53.398;6.564;2023-03-03T00:29:30;2.70;77.50
53962;DHT22;39868;53.398;6.564;2023-03-03T00:34:51;2.60;77.50
53962;DHT22;39868;53.398;6.564;2023-03-03T00:42:44;2.60;77.60
53962;DHT22;39868;53.398;6.564;2023-03-03T00:47:49;2.60;77.70
53962;DHT22;39868;53.398;6.564;2023-03-03T00:52:58;2.60;77.70
53962;DHT22;39868;53.398;6.564;2023-03-03T00:55:27;2.60;77.80
53962;DHT22;39868;53.398;6.564;2023-03-03T00:57:55;2.60;77.80
53962;DHT22;39868;53.398;6.564;2023-03-03T01:00:27;2.60;77.80
53962;DHT22;39868;53.398;6.564;2023-03-03T01:02:55;2.60;77.80
53962;DHT22;39868;53.398;6.564;2023-03-03T01:05:23;2.60;77.80
53962;DHT22;39868;53.398;6.564;2023-03-03T01:07:50;2.60;77.80
53962;DHT22;39868;53.398;6.564;2023-03-03T01:10:18;2.60;77.80
53962;DHT22;39868;53.398;6.564;2023-03-03T01:12:45;2.60;77.80
53962;DHT22;39868;53.398;6.564;2023-03-03T01:15:14;2.60;77.90
53962;DHT22;39868;53.398;6.564;2023-03-03T01:17:42;2.60;78.50
53962;DHT22;39868;53.398;6.564;2023-03-03T01:20:12;2.60;77.90
53962;DHT22;39868;53.398;6.564;2023-03-03T01:22:39;2.60;77.90
53962;DHT22;39868;53.398;6.564;2023-03-03T01:25:10;2.60;78.00
53962;DHT22;39868;53.398;6.564;2023-03-03T01:27:37;2.70;78.00
53962;DHT22;39868;53.398;6.564;2023-03-03T01:30:07;2.70;78.10
53962;DHT22;39868;53.398;6.564;2023-03-03T01:32:35;2.70;78.10
53962;DHT22;39868;53.398;6.564;2023-03-03T01:35:03;2.70;78.10
53962;DHT22;39868;53.398;6.564;2023-03-03T01:37:30;2.70;78.10
53962;DHT22;39868;53.398;6.564;2023-03-03T01:39:58;2.70;78.20
53962;DHT22;39868;53.398;6.564;2023-03-03T01:42:25;2.80;78.20
53962;DHT22;39868;53.398;6.564;2023-03-03T01:45:29;2.70;78.20
53962;DHT22;39868;53.398;6.564;2023-03-03T01:48:03;2.70;78.20
53962;DHT22;39868;53.398;6.564;2023-03-03T01:53:42;2.80;78.20
53962;DHT22;39868;53.398;6.564;2023-03-03T01:56:10;2.80;78.20
53962;DHT22;39868;53.398;6.564;2023-03-03T01:58:42;2.80;78.40
53962;DHT22;39868;53.398;6.564;2023-03-03T02:01:14;2.80;78.70
53962;DHT22;39868;53.398;6.564;2023-03-03T02:03:43;2.90;79.20
53962;DHT22;39868;53.398;6.564;2023-03-03T02:06:15;3.00;79.80
53962;DHT22;39868;53.398;6.564;2023-03-03T02:11:18;3.10;81.10
53962;DHT22;39868;53.398;6.564;2023-03-03T02:13:46;3.20;81.70
53962;DHT22;39868;53.398;6.564;2023-03-03T02:16:13;3.30;82.30
53962;DHT22;39868;53.398;6.564;2023-03-03T02:18:41;3.40;82.70
53962;DHT22;39868;53.398;6.564;2023-03-03T02:21:15;3.50;83.00
53962;DHT22;39868;53.398;6.564;2023-03-03T02:23:54;3.50;83.30
53962;DHT22;39868;53.398;6.564;2023-03-03T02:26:27;3.60;83.60
53962;DHT22;39868;53.398;6.564;2023-03-03T02:29:01;3.70;83.90
53962;DHT22;39868;53.398;6.564;2023-03-03T02:31:30;3.80;83.80
53962;DHT22;39868;53.398;6.564;2023-03-03T02:33:58;3.90;84.00
53962;DHT22;39868;53.398;6.564;2023-03-03T02:36:32;3.90;84.20
53962;DHT22;39868;53.398;6.564;2023-03-03T02:42:06;4.10;84.40
53962;DHT22;39868;53.398;6.564;2023-03-03T02:44:39;4.10;84.50
53962;DHT22;39868;53.398;6.564;2023-03-03T02:47:07;4.20;84.60
53962;DHT22;39868;53.398;6.564;2023-03-03T02:49:36;4.20;84.60
53962;DHT22;39868;53.398;6.564;2023-03-03T02:52:06;4.30;84.70
53962;DHT22;39868;53.398;6.564;2023-03-03T02:54:37;4.30;84.60
53962;DHT22;39868;53.398;6.564;2023-03-03T02:57:06;4.40;84.60
53962;DHT22;39868;53.398;6.564;2023-03-03T02:59:34;4.40;84.50
53962;DHT22;39868;53.398;6.564;2023-03-03T03:02:09;4.40;84.30
53962;DHT22;39868;53.398;6.564;2023-03-03T03:04:36;4.40;84.30
53962;DHT22;39868;53.398;6.564;2023-03-03T03:07:04;4.40;84.20
53962;DHT22;39868;53.398;6.564;2023-03-03T03:09:34;4.40;84.20
53962;DHT22;39868;53.398;6.564;2023-03-03T03:12:02;4.40;84.20
53962;DHT22;39868;53.398;6.564;2023-03-03T03:14:32;4.50;84.30
53962;DHT22;39868;53.398;6.564;2023-03-03T03:16:59;4.50;84.30
53962;DHT22;39868;53.398;6.564;2023-03-03T03:19:27;4.50;84.50
53962;DHT22;39868;53.398;6.564;2023-03-03T03:21:58;4.60;84.60
53962;DHT22;39868;53.398;6.564;2023-03-03T03:24:27;4.60;84.70
53962;DHT22;39868;53.398;6.564;2023-03-03T03:26:59;4.60;84.70
53962;DHT22;39868;53.398;6.564;2023-03-03T03:29:27;4.70;84.70
53962;DHT22;39868;53.398;6.564;2023-03-03T03:31:55;4.70;84.70
53962;DHT22;39868;53.398;6.564;2023-03-03T03:34:22;4.70;84.60
53962;DHT22;39868;53.398;6.564;2023-03-03T03:36:51;4.70;84.60
53962;DHT22;39868;53.398;6.564;2023-03-03T03:39:20;4.70;84.60
53962;DHT22;39868;53.398;6.564;2023-03-03T03:41:50;4.70;84.50
53962;DHT22;39868;53.398;6.564;2023-03-03T03:44:17;4.80;84.50
53962;DHT22;39868;53.398;6.564;2023-03-03T03:46:45;4.80;84.40
53962;DHT22;39868;53.398;6.564;2023-03-03T03:49:12;4.80;84.90
53962;DHT22;39868;53.398;6.564;2023-03-03T03:51:40;4.80;84.30
53962;DHT22;39868;53.398;6.564;2023-03-03T03:54:12;4.80;84.10
53962;DHT22;39868;53.398;6.564;2023-03-03T03:56:40;4.80;84.00
53962;DHT22;39868;53.398;6.564;2023-03-03T03:59:09;4.80;83.90
53962;DHT22;39868;53.398;6.564;2023-03-03T04:01:37;4.80;83.90
53962;DHT22;39868;53.398;6.564;2023-03-03T04:04:05;4.80;83.90
53962;DHT22;39868;53.398;6.564;2023-03-03T04:06:33;4.80;83.90
53962;DHT22;39868;53.398;6.564;2023-03-03T04:09:01;4.80;83.80
53962;DHT22;39868;53.398;6.564;2023-03-03T04:11:29;4.80;83.80
53962;DHT22;39868;53.398;6.564;2023-03-03T04:13:57;4.80;83.80
53962;DHT22;39868;53.398;6.564;2023-03-03T04:16:25;4.80;83.70
53962;DHT22;39868;53.398;6.564;2023-03-03T04:18:53;4.80;83.70
53962;DHT22;39868;53.398;6.564;2023-03-03T04:21:21;4.80;84.20
53962;DHT22;39868;53.398;6.564;2023-03-03T04:23:51;4.90;83.60
53962;DHT22;39868;53.398;6.564;2023-03-03T04:26:19;4.90;83.60
53962;DHT22;39868;53.398;6.564;2023-03-03T04:28:48;4.90;83.60
53962;DHT22;39868;53.398;6.564;2023-03-03T04:31:15;4.90;83.60
53962;DHT22;39868;53.398;6.564;2023-03-03T04:33:42;4.90;83.60
53962;DHT22;39868;53.398;6.564;2023-03-03T04:36:10;4.90;83.60
53962;DHT22;39868;53.398;6.564;2023-03-03T04:38:37;4.90;83.70
53962;DHT22;39868;53.398;6.564;2023-03-03T04:41:05;5.00;83.80
53962;DHT22;39868;53.398;6.564;2023-03-03T04:43:36;5.00;83.80
53962;DHT22;39868;53.398;6.564;2023-03-03T04:46:04;5.00;83.80
53962;DHT22;39868;53.398;6.564;2023-03-03T04:48:33;5.10;83.80
53962;DHT22;39868;53.398;6.564;2023-03-03T04:51:00;5.10;83.70
53962;DHT22;39868;53.398;6.564;2023-03-03T04:53:31;5.10;83.70
53962;DHT22;39868;53.398;6.564;2023-03-03T04:55:59;5.10;83.50
53962;DHT22;39868;53.398;6.564;2023-03-03T04:58:26;5.10;83.50
53962;DHT22;39868;53.398;6.564;2023-03-03T05:00:56;5.10;83.40
53962;DHT22;39868;53.398;6.564;2023-03-03T05:03:26;5.10;83.30
53962;DHT22;39868;53.398;6.564;2023-03-03T05:05:54;5.10;83.10
53962;DHT22;39868;53.398;6.564;2023-03-03T05:08:21;5.10;82.90
53962;DHT22;39868;53.398;6.564;2023-03-03T05:10:53;5.10;82.80
53962;DHT22;39868;53.398;6.564;2023-03-03T05:13:20;5.10;82.60
53962;DHT22;39868;53.398;6.564;2023-03-03T05:15:52;5.00;82.40
53962;DHT22;39868;53.398;6.564;2023-03-03T05:18:22;5.00;82.20
53962;DHT22;39868;53.398;6.564;2023-03-03T05:20:50;4.90;82.10
53962;DHT22;39868;53.398;6.564;2023-03-03T05:23:19;4.90;81.90
53962;DHT22;39868;53.398;6.564;2023-03-03T05:25:48;4.90;81.90
53962;DHT22;39868;53.398;6.564;2023-03-03T05:28:17;4.80;81.80
53962;DHT22;39868;53.398;6.564;2023-03-03T05:30:45;4.80;81.80
53962;DHT22;39868;53.398;6.564;2023-03-03T05:33:14;4.70;81.80
53962;DHT22;39868;53.398;6.564;2023-03-03T05:35:43;4.70;81.80
53962;DHT22;39868;53.398;6.564;2023-03-03T05:38:10;4.70;81.80
53962;DHT22;39868;53.398;6.564;2023-03-03T05:40:38;4.70;81.80
53962;DHT22;39868;53.398;6.564;2023-03-03T05:43:05;4.70;81.80
53962;DHT22;39868;53.398;6.564;2023-03-03T05:45:33;4.70;81.90
53962;DHT22;39868;53.398;6.564;2023-03-03T05:48:01;4.70;81.80
53962;DHT22;39868;53.398;6.564;2023-03-03T05:50:29;4.60;81.70
53962;DHT22;39868;53.398;6.564;2023-03-03T05:52:57;4.60;81.80
53962;DHT22;39868;53.398;6.564;2023-03-03T05:55:25;4.60;81.70
53962;DHT22;39868;53.398;6.564;2023-03-03T05:57:52;4.60;81.80
53962;DHT22;39868;53.398;6.564;2023-03-03T06:00:20;4.60;81.90
53962;DHT22;39868;53.398;6.564;2023-03-03T06:02:48;4.60;81.90
53962;DHT22;39868;53.398;6.564;2023-03-03T06:05:15;4.60;81.90
53962;DHT22;39868;53.398;6.564;2023-03-03T06:07:42;4.60;82.00
53962;DHT22;39868;53.398;6.564;2023-03-03T06:10:11;4.70;82.10
53962;DHT22;39868;53.398;6.564;2023-03-03T06:12:40;4.70;82.10
53962;DHT22;39868;53.398;6.564;2023-03-03T06:15:08;4.70;82.20
53962;DHT22;39868;53.398;6.564;2023-03-03T06:17:37;4.70;82.20
53962;DHT22;39868;53.398;6.564;2023-03-03T06:20:05;4.80;82.30
53962;DHT22;39868;53.398;6.564;2023-03-03T06:22:32;4.80;82.30
53962;DHT22;39868;53.398;6.564;2023-03-03T06:25:00;4.80;82.30
53962;DHT22;39868;53.398;6.564;2023-03-03T06:27:27;4.90;82.40
53962;DHT22;39868;53.398;6.564;2023-03-03T06:29:55;4.90;82.40
53962;DHT22;39868;53.398;6.564;2023-03-03T06:32:22;5.00;82.50
53962;DHT22;39868;53.398;6.564;2023-03-03T06:34:49;5.00;82.50
53962;DHT22;39868;53.398;6.564;2023-03-03T06:37:17;5.00;82.50
53962;DHT22;39868;53.398;6.564;2023-03-03T06:39:44;5.10;82.60
53962;DHT22;39868;53.398;6.564;2023-03-03T06:42:11;5.10;82.60
53962;DHT22;39868;53.398;6.564;2023-03-03T06:44:39;5.20;82.60
53962;DHT22;39868;53.398;6.564;2023-03-03T06:47:06;5.20;82.60
53962;DHT22;39868;53.398;6.564;2023-03-03T06:49:34;5.30;82.70
53962;DHT22;39868;53.398;6.564;2023-03-03T06:52:12;5.30;82.70
53962;DHT22;39868;53.398;6.564;2023-03-03T06:54:40;5.40;82.70
53962;DHT22;39868;53.398;6.564;2023-03-03T06:59:48;5.40;82.60
53962;DHT22;39868;53.398;6.564;2023-03-03T07:02:17;5.40;82.50
53962;DHT22;39868;53.398;6.564;2023-03-03T07:04:45;5.50;82.50
53962;DHT22;39868;53.398;6.564;2023-03-03T07:07:19;5.50;82.40
53962;DHT22;39868;53.398;6.564;2023-03-03T07:09:52;5.50;82.30
53962;DHT22;39868;53.398;6.564;2023-03-03T07:12:22;5.50;82.20
53962;DHT22;39868;53.398;6.564;2023-03-03T07:17:47;5.60;82.30
53962;DHT22;39868;53.398;6.564;2023-03-03T07:20:20;5.60;82.30
53962;DHT22;39868;53.398;6.564;2023-03-03T07:22:48;5.60;82.30
53962;DHT22;39868;53.398;6.564;2023-03-03T07:25:29;5.70;82.30
53962;DHT22;39868;53.398;6.564;2023-03-03T07:30:47;5.70;82.20
53962;DHT22;39868;53.398;6.564;2023-03-03T07:33:35;5.70;82.20
53962;DHT22;39868;53.398;6.564;2023-03-03T07:36:28;5.80;82.30
53962;DHT22;39868;53.398;6.564;2023-03-03T07:39:00;5.80;82.30
53962;DHT22;39868;53.398;6.564;2023-03-03T07:41:30;5.90;83.00
53962;DHT22;39868;53.398;6.564;2023-03-03T07:44:06;5.90;82.40
53962;DHT22;39868;53.398;6.564;2023-03-03T07:46:40;6.00;82.50
53962;DHT22;39868;53.398;6.564;2023-03-03T07:49:34;6.00;82.60
53962;DHT22;39868;53.398;6.564;2023-03-03T07:52:15;6.10;82.70
53962;DHT22;39868;53.398;6.564;2023-03-03T07:54:44;6.20;82.80
53962;DHT22;39868;53.398;6.564;2023-03-03T07:57:35;6.30;82.90
53962;DHT22;39868;53.398;6.564;2023-03-03T08:10:48;6.80;83.30
53962;DHT22;39868;53.398;6.564;2023-03-03T08:13:28;6.90;83.30
53962;DHT22;39868;53.398;6.564;2023-03-03T08:18:47;7.10;83.60
53962;DHT22;39868;53.398;6.564;2023-03-03T08:21:18;7.30;83.70
53962;DHT22;39868;53.398;6.564;2023-03-03T08:23:45;7.40;83.60
53962;DHT22;39868;53.398;6.564;2023-03-03T08:26:15;7.50;83.50
53962;DHT22;39868;53.398;6.564;2023-03-03T08:28:43;7.60;83.40
53962;DHT22;39868;53.398;6.564;2023-03-03T08:31:10;7.70;83.40
53962;DHT22;39868;53.398;6.564;2023-03-03T08:33:48;7.90;83.30
53962;DHT22;39868;53.398;6.564;2023-03-03T08:36:15;8.00;83.30
53962;DHT22;39868;53.398;6.564;2023-03-03T08:38:43;8.10;83.10
53962;DHT22;39868;53.398;6.564;2023-03-03T08:41:10;8.20;82.90
53962;DHT22;39868;53.398;6.564;2023-03-03T08:43:38;8.30;82.70
53962;DHT22;39868;53.398;6.564;2023-03-03T08:46:06;8.40;82.60
53962;DHT22;39868;53.398;6.564;2023-03-03T08:48:36;8.50;82.50
53962;DHT22;39868;53.398;6.564;2023-03-03T08:51:03;8.60;82.50
53962;DHT22;39868;53.398;6.564;2023-03-03T08:53:31;8.80;82.50
53962;DHT22;39868;53.398;6.564;2023-03-03T08:56:03;9.00;83.30
53962;DHT22;39868;53.398;6.564;2023-03-03T08:58:31;9.10;82.70
53962;DHT22;39868;53.398;6.564;2023-03-03T09:01:02;9.20;82.60
53962;DHT22;39868;53.398;6.564;2023-03-03T09:03:30;9.40;82.10
53962;DHT22;39868;53.398;6.564;2023-03-03T09:05:58;9.50;81.60
53962;DHT22;39868;53.398;6.564;2023-03-03T09:08:26;9.50;81.20
53962;DHT22;39868;53.398;6.564;2023-03-03T09:10:53;9.60;80.60
53962;DHT22;39868;53.398;6.564;2023-03-03T09:13:20;9.60;79.00
53962;DHT22;39868;53.398;6.564;2023-03-03T09:15:48;9.60;78.30
53962;DHT22;39868;53.398;6.564;2023-03-03T09:18:30;9.60;78.40
53962;DHT22;39868;53.398;6.564;2023-03-03T09:20:57;9.70;78.30
53962;DHT22;39868;53.398;6.564;2023-03-03T09:23:34;9.70;78.30
53962;DHT22;39868;53.398;6.564;2023-03-03T09:31:40;9.80;77.20
53962;DHT22;39868;53.398;6.564;2023-03-03T09:36:45;9.80;76.40
53962;DHT22;39868;53.398;6.564;2023-03-03T09:39:18;9.90;76.30
53962;DHT22;39868;53.398;6.564;2023-03-03T09:47:30;10.00;76.20
53962;DHT22;39868;53.398;6.564;2023-03-03T09:55:38;10.10;76.50
53962;DHT22;39868;53.398;6.564;2023-03-03T10:01:14;10.20;76.30
53962;DHT22;39868;53.398;6.564;2023-03-03T10:06:34;10.20;75.70
53962;DHT22;39868;53.398;6.564;2023-03-03T10:09:37;10.30;75.00
53962;DHT22;39868;53.398;6.564;2023-03-03T10:22:51;10.40;73.70
53962;DHT22;39868;53.398;6.564;2023-03-03T10:36:25;10.70;73.20
53962;DHT22;39868;53.398;6.564;2023-03-03T10:39:18;10.90;73.60
53962;DHT22;39868;53.398;6.564;2023-03-03T10:52:42;11.40;72.30
53962;DHT22;39868;53.398;6.564;2023-03-03T11:06:24;11.70;71.00
53962;DHT22;39868;53.398;6.564;2023-03-03T11:09:27;11.80;71.00
53962;DHT22;39868;53.398;6.564;2023-03-03T11:32:49;11.90;69.70
53962;DHT22;39868;53.398;6.564;2023-03-03T11:35:45;11.90;69.80
53962;DHT22;39868;53.398;6.564;2023-03-03T11:38:41;11.90;69.40
53962;DHT22;39868;53.398;6.564;2023-03-03T11:41:16;11.90;69.30
53962;DHT22;39868;53.398;6.564;2023-03-03T11:43:53;11.90;69.40
53962;DHT22;39868;53.398;6.564;2023-03-03T11:50:01;12.00;68.40
53962;DHT22;39868;53.398;6.564;2023-03-03T11:52:43;12.00;68.70
53962;DHT22;39868;53.398;6.564;2023-03-03T11:55:23;12.00;68.60
53962;DHT22;39868;53.398;6.564;2023-03-03T11:58:10;12.00;68.10
53962;DHT22;39868;53.398;6.564;2023-03-03T12:00:44;12.00;68.20
53962;DHT22;39868;53.398;6.564;2023-03-03T12:04:08;12.00;67.60
53962;DHT22;39868;53.398;6.564;2023-03-03T12:09:40;12.00;66.90
53962;DHT22;39868;53.398;6.564;2023-03-03T12:12:23;12.00;67.10
53962;DHT22;39868;53.398;6.564;2023-03-03T12:18:11;12.10;67.50
53962;DHT22;39868;53.398;6.564;2023-03-03T12:21:14;12.10;67.40
53962;DHT22;39868;53.398;6.564;2023-03-03T12:31:58;12.00;66.50
53962;DHT22;39868;53.398;6.564;2023-03-03T12:34:40;11.90;66.70
53962;DHT22;39868;53.398;6.564;2023-03-03T12:39:53;11.90;66.60
53962;DHT22;39868;53.398;6.564;2023-03-03T12:42:45;11.90;66.50
53962;DHT22;39868;53.398;6.564;2023-03-03T12:47:59;11.80;66.60
53962;DHT22;39868;53.398;6.564;2023-03-03T12:50:41;11.80;66.80
53962;DHT22;39868;53.398;6.564;2023-03-03T12:56:02;11.80;66.20
53962;DHT22;39868;53.398;6.564;2023-03-03T13:01:41;11.70;66.50
53962;DHT22;39868;53.398;6.564;2023-03-03T13:26:16;11.30;66.60
53962;DHT22;39868;53.398;6.564;2023-03-03T13:31:39;11.20;66.90
53962;DHT22;39868;53.398;6.564;2023-03-03T13:37:04;11.20;66.90
53962;DHT22;39868;53.398;6.564;2023-03-03T13:44:55;11.10;67.60
53962;DHT22;39868;53.398;6.564;2023-03-03T13:47:45;11.10;67.50
53962;DHT22;39868;53.398;6.564;2023-03-03T13:58:48;10.90;67.40
53962;DHT22;39868;53.398;6.564;2023-03-03T14:04:03;10.90;67.50
53962;DHT22;39868;53.398;6.564;2023-03-03T14:06:31;10.90;67.20
53962;DHT22;39868;53.398;6.564;2023-03-03T14:09:38;10.90;67.50
53962;DHT22;39868;53.398;6.564;2023-03-03T14:15:27;10.80;67.50
53962;DHT22;39868;53.398;6.564;2023-03-03T14:20:51;10.90;67.90
53962;DHT22;39868;53.398;6.564;2023-03-03T14:23:24;10.80;68.00
53962;DHT22;39868;53.398;6.564;2023-03-03T14:28:41;10.80;67.80
53962;DHT22;39868;53.398;6.564;2023-03-03T14:31:27;10.80;67.70
53962;DHT22;39868;53.398;6.564;2023-03-03T14:36:51;10.70;68.00
53962;DHT22;39868;53.398;6.564;2023-03-03T14:39:33;10.70;68.10
53962;DHT22;39868;53.398;6.564;2023-03-03T14:42:09;10.70;68.00
53962;DHT22;39868;53.398;6.564;2023-03-03T14:47:20;10.70;68.30
53962;DHT22;39868;53.398;6.564;2023-03-03T14:49:49;10.70;68.30
53962;DHT22;39868;53.398;6.564;2023-03-03T14:52:23;10.70;68.40
53962;DHT22;39868;53.398;6.564;2023-03-03T14:54:53;10.70;68.30
53962;DHT22;39868;53.398;6.564;2023-03-03T15:00:32;10.60;68.10
53962;DHT22;39868;53.398;6.564;2023-03-03T15:05:31;10.60;68.30
53962;DHT22;39868;53.398;6.564;2023-03-03T15:10:41;10.50;68.40
53962;DHT22;39868;53.398;6.564;2023-03-03T15:16:02;10.50;68.80
53962;DHT22;39868;53.398;6.564;2023-03-03T15:18:31;10.50;68.70
53962;DHT22;39868;53.398;6.564;2023-03-03T15:21:12;10.50;68.50
53962;DHT22;39868;53.398;6.564;2023-03-03T15:29:31;10.40;68.30
53962;DHT22;39868;53.398;6.564;2023-03-03T15:43:34;10.20;69.20
53962;DHT22;39868;53.398;6.564;2023-03-03T15:46:27;10.20;69.10
53962;DHT22;39868;53.398;6.564;2023-03-03T15:49:27;10.10;69.10
53962;DHT22;39868;53.398;6.564;2023-03-03T15:54:59;10.00;69.10
53962;DHT22;39868;53.398;6.564;2023-03-03T16:00:36;10.00;69.40
53962;DHT22;39868;53.398;6.564;2023-03-03T16:03:26;10.00;69.50
53962;DHT22;39868;53.398;6.564;2023-03-03T16:16:56;9.80;69.70
53962;DHT22;39868;53.398;6.564;2023-03-03T16:26:03;9.70;70.10
53962;DHT22;39868;53.398;6.564;2023-03-03T16:28:15;9.70;70.20
53962;DHT22;39868;53.398;6.564;2023-03-03T16:31:04;9.60;70.30
53962;DHT22;39868;53.398;6.564;2023-03-03T16:33:48;9.60;70.40
53962;DHT22;39868;53.398;6.564;2023-03-03T16:53:00;9.50;70.90
53962;DHT22;39868;53.398;6.564;2023-03-03T17:01:24;9.50;71.00
53962;DHT22;39868;53.398;6.564;2023-03-03T17:04:03;9.50;71.00
53962;DHT22;39868;53.398;6.564;2023-03-03T17:06:44;9.50;70.80
53962;DHT22;39868;53.398;6.564;2023-03-03T17:18:09;9.40;70.80
53962;DHT22;39868;53.398;6.564;2023-03-03T17:20:59;9.50;70.90
53962;DHT22;39868;53.398;6.564;2023-03-03T17:29:07;9.40;71.00
53962;DHT22;39868;53.398;6.564;2023-03-03T17:32:00;9.30;71.00
53962;DHT22;39868;53.398;6.564;2023-03-03T17:37:33;9.30;71.20
53962;DHT22;39868;53.398;6.564;2023-03-03T17:40:23;9.30;71.30
53962;DHT22;39868;53.398;6.564;2023-03-03T17:43:17;9.30;71.30
53962;DHT22;39868;53.398;6.564;2023-03-03T17:45:50;9.30;71.30
53962;DHT22;39868;53.398;6.564;2023-03-03T17:48:28;9.30;71.40
53962;DHT22;39868;53.398;6.564;2023-03-03T18:07:24;9.30;72.10
53962;DHT22;39868;53.398;6.564;2023-03-03T18:10:05;9.30;72.30
53962;DHT22;39868;53.398;6.564;2023-03-03T18:13:08;9.30;72.20
53962;DHT22;39868;53.398;6.564;2023-03-03T18:16:10;9.30;72.10
53962;DHT22;39868;53.398;6.564;2023-03-03T18:19:11;9.30;72.10
53962;DHT22;39868;53.398;6.564;2023-03-03T18:40:52;9.20;72.60
53962;DHT22;39868;53.398;6.564;2023-03-03T18:46:53;9.20;73.00
53962;DHT22;39868;53.398;6.564;2023-03-03T18:52:23;9.10;73.00
53962;DHT22;39868;53.398;6.564;2023-03-03T18:57:37;9.10;72.50
53962;DHT22;39868;53.398;6.564;2023-03-03T19:00:24;9.10;72.40
53962;DHT22;39868;53.398;6.564;2023-03-03T19:02:56;9.10;72.50
53962;DHT22;39868;53.398;6.564;2023-03-03T19:05:35;9.10;72.60
53962;DHT22;39868;53.398;6.564;2023-03-03T19:08:23;9.10;72.40
53962;DHT22;39868;53.398;6.564;2023-03-03T19:11:00;9.10;72.20
53962;DHT22;39868;53.398;6.564;2023-03-03T19:16:04;9.00;72.80
53962;DHT22;39868;53.398;6.564;2023-03-03T19:19:20;9.00;73.20
53962;DHT22;39868;53.398;6.564;2023-03-03T19:21:27;8.90;73.00
53962;DHT22;39868;53.398;6.564;2023-03-03T19:24:04;8.90;72.90
53962;DHT22;39868;53.398;6.564;2023-03-03T19:29:54;8.90;72.90
53962;DHT22;39868;53.398;6.564;2023-03-03T19:35:41;8.90;73.20
53962;DHT22;39868;53.398;6.564;2023-03-03T19:40:53;9.00;73.30
53962;DHT22;39868;53.398;6.564;2023-03-03T19:47:03;9.00;73.50
53962;DHT22;39868;53.398;6.564;2023-03-03T19:53:09;8.90;72.50
53962;DHT22;39868;53.398;6.564;2023-03-03T19:58:59;8.90;73.50
53962;DHT22;39868;53.398;6.564;2023-03-03T20:02:30;8.80;73.60
53962;DHT22;39868;53.398;6.564;2023-03-03T20:10:32;8.90;74.00
53962;DHT22;39868;53.398;6.564;2023-03-03T20:16:34;8.90;73.50
53962;DHT22;39868;53.398;6.564;2023-03-03T20:19:47;8.90;73.50
53962;DHT22;39868;53.398;6.564;2023-03-03T20:22:33;8.90;73.60
53962;DHT22;39868;53.398;6.564;2023-03-03T20:26:07;8.90;73.60
53962;DHT22;39868;53.398;6.564;2023-03-03T20:28:10;8.90;73.30
53962;DHT22;39868;53.398;6.564;2023-03-03T20:41:55;8.80;74.40
53962;DHT22;39868;53.398;6.564;2023-03-03T20:44:40;8.80;74.50
53962;DHT22;39868;53.398;6.564;2023-03-03T20:47:49;8.90;74.60
53962;DHT22;39868;53.398;6.564;2023-03-03T20:50:35;8.90;74.50
53962;DHT22;39868;53.398;6.564;2023-03-03T20:58:30;9.00;74.00
53962;DHT22;39868;53.398;6.564;2023-03-03T21:01:05;9.00;73.60
53962;DHT22;39868;53.398;6.564;2023-03-03T21:03:36;9.00;73.40
53962;DHT22;39868;53.398;6.564;2023-03-03T21:06:12;9.10;73.20
53962;DHT22;39868;53.398;6.564;2023-03-03T21:14:16;9.10;73.10
53962;DHT22;39868;53.398;6.564;2023-03-03T21:16:45;9.00;73.00
53962;DHT22;39868;53.398;6.564;2023-03-03T21:19:30;9.10;73.10
53962;DHT22;39868;53.398;6.564;2023-03-03T21:21:59;9.10;73.30
53962;DHT22;39868;53.398;6.564;2023-03-03T21:27:26;9.10;73.00
53962;DHT22;39868;53.398;6.564;2023-03-03T21:30:14;9.00;72.70
53962;DHT22;39868;53.398;6.564;2023-03-03T21:32:43;9.00;72.70
53962;DHT22;39868;53.398;6.564;2023-03-03T21:35:16;9.00;72.80
53962;DHT22;39868;53.398;6.564;2023-03-03T21:37:50;9.00;72.90
53962;DHT22;39868;53.398;6.564;2023-03-03T21:42:53;9.00;73.00
53962;DHT22;39868;53.398;6.564;2023-03-03T21:45:21;9.10;73.00
53962;DHT22;39868;53.398;6.564;2023-03-03T21:47:50;9.10;73.00
53962;DHT22;39868;53.398;6.564;2023-03-03T21:50:17;9.10;73.00
53962;DHT22;39868;53.398;6.564;2023-03-03T21:52:48;9.10;72.90
53962;DHT22;39868;53.398;6.564;2023-03-03T21:55:15;9.10;72.80
53962;DHT22;39868;53.398;6.564;2023-03-03T21:57:43;9.10;72.80
53962;DHT22;39868;53.398;6.564;2023-03-03T22:00:11;9.10;72.80
53962;DHT22;39868;53.398;6.564;2023-03-03T22:02:38;9.10;72.60
53962;DHT22;39868;53.398;6.564;2023-03-03T22:05:06;9.10;72.50
53962;DHT22;39868;53.398;6.564;2023-03-03T22:07:33;9.10;72.30
53962;DHT22;39868;53.398;6.564;2023-03-03T22:10:01;9.10;72.20
53962;DHT22;39868;53.398;6.564;2023-03-03T22:12:29;9.10;72.20
53962;DHT22;39868;53.398;6.564;2023-03-03T22:14:56;9.00;72.10
53962;DHT22;39868;53.398;6.564;2023-03-03T22:17:23;9.00;71.80
53962;DHT22;39868;53.398;6.564;2023-03-03T22:19:51;9.10;71.20
53962;DHT22;39868;53.398;6.564;2023-03-03T22:22:19;9.00;70.90
53962;DHT22;39868;53.398;6.564;2023-03-03T22:24:46;9.00;71.30
53962;DHT22;39868;53.398;6.564;2023-03-03T22:27:13;9.00;71.50
53962;DHT22;39868;53.398;6.564;2023-03-03T22:29:41;9.00;71.70
53962;DHT22;39868;53.398;6.564;2023-03-03T22:32:08;9.00;71.70
53962;DHT22;39868;53.398;6.564;2023-03-03T22:34:36;9.00;71.20
53962;DHT22;39868;53.398;6.564;2023-03-03T22:37:03;9.00;70.90
53962;DHT22;39868;53.398;6.564;2023-03-03T22:39:30;9.00;71.10
53962;DHT22;39868;53.398;6.564;2023-03-03T22:41:58;9.00;71.30
53962;DHT22;39868;53.398;6.564;2023-03-03T22:44:25;9.00;71.40
53962;DHT22;39868;53.398;6.564;2023-03-03T22:46:52;9.00;71.40
53962;DHT22;39868;53.398;6.564;2023-03-03T22:49:20;9.00;71.40
53962;DHT22;39868;53.398;6.564;2023-03-03T22:51:47;9.00;71.60
53962;DHT22;39868;53.398;6.564;2023-03-03T22:54:14;9.00;71.60
53962;DHT22;39868;53.398;6.564;2023-03-03T22:56:42;9.00;71.60
53962;DHT22;39868;53.398;6.564;2023-03-03T22:59:09;9.00;71.70
53962;DHT22;39868;53.398;6.564;2023-03-03T23:01:36;9.00;71.80
53962;DHT22;39868;53.398;6.564;2023-03-03T23:04:06;9.00;72.00
53962;DHT22;39868;53.398;6.564;2023-03-03T23:06:34;9.00;72.10
53962;DHT22;39868;53.398;6.564;2023-03-03T23:09:01;9.00;72.30
53962;DHT22;39868;53.398;6.564;2023-03-03T23:11:28;9.10;72.50
53962;DHT22;39868;53.398;6.564;2023-03-03T23:13:56;9.10;72.40
53962;DHT22;39868;53.398;6.564;2023-03-03T23:16:23;9.10;72.30
53962;DHT22;39868;53.398;6.564;2023-03-03T23:18:51;9.10;72.30